sensor_id;sensor_type;location;lat;lon;timestamp;P1;durP1;ratioP1;P2;durP2;ratioP2
74375;SDS011;62812;55.188;61.302;2023-05-10T00:01:30;117.38;;;60.35;;
74375;SDS011;62812;55.188;61.302;2023-05-10T00:03:57;125.43;;;63.00;;
74375;SDS011;62812;55.188;61.302;2023-05-10T00:06:25;127.68;;;64.25;;
74375;SDS011;62812;55.188;61.302;2023-05-10T00:08:52;128.57;;;65.05;;
74375;SDS011;62812;55.188;61.302;2023-05-10T00:11:19;125.88;;;66.32;;
74375;SDS011;62812;55.188;61.302;2023-05-10T00:13:45;123.85;;;63.45;;
74375;SDS011;62812;55.188;61.302;2023-05-10T00:16:13;128.77;;;64.88;;
74375;SDS011;62812;55.188;61.302;2023-05-10T00:18:41;124.43;;;60.75;;
74375;SDS011;62812;55.188;61.302;2023-05-10T00:21:08;132.32;;;64.50;;
74375;SDS011;62812;55.188;61.302;2023-05-10T00:23:34;120.43;;;62.20;;
74375;SDS011;62812;55.188;61.302;2023-05-10T00:26:01;126.03;;;63.53;;
74375;SDS011;62812;55.188;61.302;2023-05-10T00:28:28;128.85;;;63.05;;
74375;SDS011;62812;55.188;61.302;2023-05-10T00:30:55;126.30;;;64.10;;
74375;SDS011;62812;55.188;61.302;2023-05-10T00:33:22;131.80;;;63.92;;
74375;SDS011;62812;55.188;61.302;2023-05-10T00:35:50;139.32;;;63.90;;
74375;SDS011;62812;55.188;61.302;2023-05-10T00:38:17;131.93;;;64.47;;
74375;SDS011;62812;55.188;61.302;2023-05-10T00:40:44;125.25;;;64.55;;
74375;SDS011;62812;55.188;61.302;2023-05-10T00:43:11;123.85;;;63.80;;
74375;SDS011;62812;55.188;61.302;2023-05-10T00:45:38;125.20;;;65.10;;
74375;SDS011;62812;55.188;61.302;2023-05-10T00:48:06;130.32;;;66.60;;
74375;SDS011;62812;55.188;61.302;2023-05-10T00:50:33;132.10;;;64.85;;
74375;SDS011;62812;55.188;61.302;2023-05-10T00:53:02;128.32;;;66.05;;
74375;SDS011;62812;55.188;61.302;2023-05-10T00:55:29;125.68;;;66.30;;
74375;SDS011;62812;55.188;61.302;2023-05-10T00:57:56;128.00;;;61.50;;
74375;SDS011;62812;55.188;61.302;2023-05-10T01:00:23;122.18;;;63.38;;
74375;SDS011;62812;55.188;61.302;2023-05-10T01:02:50;122.97;;;63.83;;
74375;SDS011;62812;55.188;61.302;2023-05-10T01:05:16;122.18;;;63.03;;
74375;SDS011;62812;55.188;61.302;2023-05-10T01:07:43;126.43;;;64.75;;
74375;SDS011;62812;55.188;61.302;2023-05-10T01:10:11;126.63;;;66.15;;
74375;SDS011;62812;55.188;61.302;2023-05-10T01:12:39;125.75;;;67.95;;
74375;SDS011;62812;55.188;61.302;2023-05-10T01:17:37;117.72;;;63.80;;
74375;SDS011;62812;55.188;61.302;2023-05-10T01:20:07;121.75;;;62.53;;
74375;SDS011;62812;55.188;61.302;2023-05-10T01:22:50;121.85;;;65.35;;
74375;SDS011;62812;55.188;61.302;2023-05-10T01:25:44;127.30;;;65.15;;
74375;SDS011;62812;55.188;61.302;2023-05-10T01:28:47;134.25;;;66.50;;
74375;SDS011;62812;55.188;61.302;2023-05-10T01:31:35;129.40;;;66.68;;
74375;SDS011;62812;55.188;61.302;2023-05-10T01:34:38;120.30;;;64.60;;
74375;SDS011;62812;55.188;61.302;2023-05-10T01:37:10;126.05;;;66.97;;
74375;SDS011;62812;55.188;61.302;2023-05-10T01:39:41;123.10;;;64.13;;
74375;SDS011;62812;55.188;61.302;2023-05-10T01:42:14;105.85;;;57.65;;
74375;SDS011;62812;55.188;61.302;2023-05-10T01:44:46;115.50;;;62.45;;
74375;SDS011;62812;55.188;61.302;2023-05-10T01:47:20;113.20;;;59.30;;
74375;SDS011;62812;55.188;61.302;2023-05-10T01:49:54;94.22;;;49.08;;
74375;SDS011;62812;55.188;61.302;2023-05-10T01:52:27;92.55;;;52.30;;
74375;SDS011;62812;55.188;61.302;2023-05-10T01:55:02;103.55;;;53.42;;
74375;SDS011;62812;55.188;61.302;2023-05-10T01:57:32;109.75;;;57.50;;
74375;SDS011;62812;55.188;61.302;2023-05-10T02:00:00;104.95;;;57.28;;
74375;SDS011;62812;55.188;61.302;2023-05-10T02:02:30;106.53;;;56.03;;
74375;SDS011;62812;55.188;61.302;2023-05-10T02:05:02;99.72;;;54.30;;
74375;SDS011;62812;55.188;61.302;2023-05-10T02:10:01;89.82;;;50.38;;
74375;SDS011;62812;55.188;61.302;2023-05-10T02:12:28;89.90;;;49.70;;
74375;SDS011;62812;55.188;61.302;2023-05-10T02:14:58;88.85;;;50.63;;
74375;SDS011;62812;55.188;61.302;2023-05-10T02:17:28;93.25;;;49.40;;
74375;SDS011;62812;55.188;61.302;2023-05-10T02:19:58;97.97;;;52.63;;
74375;SDS011;62812;55.188;61.302;2023-05-10T02:22:25;81.40;;;46.45;;
74375;SDS011;62812;55.188;61.302;2023-05-10T02:24:54;96.53;;;51.47;;
74375;SDS011;62812;55.188;61.302;2023-05-10T02:27:25;89.75;;;49.58;;
74375;SDS011;62812;55.188;61.302;2023-05-10T02:29:53;97.68;;;49.63;;
74375;SDS011;62812;55.188;61.302;2023-05-10T02:32:20;83.28;;;42.35;;
74375;SDS011;62812;55.188;61.302;2023-05-10T02:34:48;85.05;;;45.42;;
74375;SDS011;62812;55.188;61.302;2023-05-10T02:37:19;76.38;;;42.72;;
74375;SDS011;62812;55.188;61.302;2023-05-10T02:39:48;74.88;;;39.58;;
74375;SDS011;62812;55.188;61.302;2023-05-10T02:42:16;72.40;;;40.67;;
74375;SDS011;62812;55.188;61.302;2023-05-10T02:44:45;78.63;;;41.25;;
74375;SDS011;62812;55.188;61.302;2023-05-10T02:47:16;65.15;;;37.60;;
74375;SDS011;62812;55.188;61.302;2023-05-10T02:49:44;75.50;;;39.63;;
74375;SDS011;62812;55.188;61.302;2023-05-10T02:52:11;72.00;;;39.90;;
74375;SDS011;62812;55.188;61.302;2023-05-10T02:54:48;66.50;;;37.42;;
74375;SDS011;62812;55.188;61.302;2023-05-10T02:57:20;68.00;;;35.97;;
74375;SDS011;62812;55.188;61.302;2023-05-10T02:59:51;66.28;;;38.00;;
74375;SDS011;62812;55.188;61.302;2023-05-10T03:02:17;65.57;;;35.00;;
74375;SDS011;62812;55.188;61.302;2023-05-10T03:04:44;71.40;;;34.80;;
74375;SDS011;62812;55.188;61.302;2023-05-10T03:07:11;59.92;;;33.17;;
74375;SDS011;62812;55.188;61.302;2023-05-10T03:09:38;61.20;;;33.13;;
74375;SDS011;62812;55.188;61.302;2023-05-10T03:12:09;55.20;;;31.23;;
74375;SDS011;62812;55.188;61.302;2023-05-10T03:14:45;55.47;;;27.85;;
74375;SDS011;62812;55.188;61.302;2023-05-10T03:17:20;51.13;;;28.42;;
74375;SDS011;62812;55.188;61.302;2023-05-10T03:19:53;47.20;;;26.20;;
74375;SDS011;62812;55.188;61.302;2023-05-10T03:22:23;52.30;;;26.33;;
74375;SDS011;62812;55.188;61.302;2023-05-10T03:24:53;50.13;;;25.27;;
74375;SDS011;62812;55.188;61.302;2023-05-10T03:27:25;49.42;;;24.20;;
74375;SDS011;62812;55.188;61.302;2023-05-10T03:29:53;42.95;;;23.80;;
74375;SDS011;62812;55.188;61.302;2023-05-10T03:32:22;46.67;;;25.27;;
74375;SDS011;62812;55.188;61.302;2023-05-10T03:34:49;42.33;;;25.08;;
74375;SDS011;62812;55.188;61.302;2023-05-10T03:37:16;44.22;;;22.77;;
74375;SDS011;62812;55.188;61.302;2023-05-10T03:39:44;43.85;;;24.33;;
74375;SDS011;62812;55.188;61.302;2023-05-10T03:42:13;38.72;;;20.55;;
74375;SDS011;62812;55.188;61.302;2023-05-10T03:44:42;34.80;;;19.13;;
74375;SDS011;62812;55.188;61.302;2023-05-10T03:47:09;43.88;;;20.38;;
74375;SDS011;62812;55.188;61.302;2023-05-10T03:49:36;37.95;;;19.15;;
74375;SDS011;62812;55.188;61.302;2023-05-10T03:52:04;39.35;;;19.20;;
74375;SDS011;62812;55.188;61.302;2023-05-10T03:54:32;39.30;;;19.55;;
74375;SDS011;62812;55.188;61.302;2023-05-10T03:57:02;40.22;;;17.95;;
74375;SDS011;62812;55.188;61.302;2023-05-10T03:59:29;29.35;;;15.68;;
74375;SDS011;62812;55.188;61.302;2023-05-10T04:02:02;31.55;;;16.80;;
74375;SDS011;62812;55.188;61.302;2023-05-10T04:04:30;32.28;;;16.08;;
74375;SDS011;62812;55.188;61.302;2023-05-10T04:06:57;29.02;;;16.00;;
74375;SDS011;62812;55.188;61.302;2023-05-10T04:09:28;29.98;;;15.68;;
74375;SDS011;62812;55.188;61.302;2023-05-10T04:11:55;30.30;;;15.60;;
74375;SDS011;62812;55.188;61.302;2023-05-10T04:14:24;27.58;;;13.90;;
74375;SDS011;62812;55.188;61.302;2023-05-10T04:16:52;25.38;;;13.10;;
74375;SDS011;62812;55.188;61.302;2023-05-10T04:19:21;29.10;;;14.50;;
74375;SDS011;62812;55.188;61.302;2023-05-10T04:21:50;32.50;;;14.43;;
74375;SDS011;62812;55.188;61.302;2023-05-10T04:24:18;29.00;;;14.48;;
74375;SDS011;62812;55.188;61.302;2023-05-10T04:26:55;24.83;;;12.10;;
74375;SDS011;62812;55.188;61.302;2023-05-10T04:29:26;26.80;;;12.57;;
74375;SDS011;62812;55.188;61.302;2023-05-10T04:31:54;21.90;;;9.75;;
74375;SDS011;62812;55.188;61.302;2023-05-10T04:34:24;24.98;;;11.55;;
74375;SDS011;62812;55.188;61.302;2023-05-10T04:36:56;22.25;;;11.50;;
74375;SDS011;62812;55.188;61.302;2023-05-10T04:39:25;23.63;;;12.32;;
74375;SDS011;62812;55.188;61.302;2023-05-10T04:41:58;22.15;;;11.10;;
74375;SDS011;62812;55.188;61.302;2023-05-10T04:44:25;20.13;;;11.00;;
74375;SDS011;62812;55.188;61.302;2023-05-10T04:46:52;21.75;;;11.43;;
74375;SDS011;62812;55.188;61.302;2023-05-10T04:49:23;28.48;;;13.30;;
74375;SDS011;62812;55.188;61.302;2023-05-10T04:51:56;23.17;;;11.70;;
74375;SDS011;62812;55.188;61.302;2023-05-10T04:54:25;23.45;;;12.45;;
74375;SDS011;62812;55.188;61.302;2023-05-10T04:56:55;27.95;;;13.18;;
74375;SDS011;62812;55.188;61.302;2023-05-10T04:59:25;28.50;;;12.07;;
74375;SDS011;62812;55.188;61.302;2023-05-10T05:01:53;26.75;;;11.85;;
74375;SDS011;62812;55.188;61.302;2023-05-10T05:04:21;21.92;;;11.35;;
74375;SDS011;62812;55.188;61.302;2023-05-10T05:06:57;26.52;;;11.88;;
74375;SDS011;62812;55.188;61.302;2023-05-10T05:09:24;27.08;;;12.27;;
74375;SDS011;62812;55.188;61.302;2023-05-10T05:11:51;24.55;;;13.00;;
74375;SDS011;62812;55.188;61.302;2023-05-10T05:14:19;26.65;;;12.70;;
74375;SDS011;62812;55.188;61.302;2023-05-10T05:16:47;24.08;;;11.90;;
74375;SDS011;62812;55.188;61.302;2023-05-10T05:19:19;20.15;;;10.88;;
74375;SDS011;62812;55.188;61.302;2023-05-10T05:21:55;25.52;;;8.45;;
74375;SDS011;62812;55.188;61.302;2023-05-10T05:24:37;14.90;;;6.15;;
74375;SDS011;62812;55.188;61.302;2023-05-10T05:27:06;13.35;;;5.82;;
74375;SDS011;62812;55.188;61.302;2023-05-10T05:32:37;11.77;;;5.90;;
74375;SDS011;62812;55.188;61.302;2023-05-10T05:35:09;13.88;;;6.22;;
74375;SDS011;62812;55.188;61.302;2023-05-10T05:37:39;13.60;;;6.70;;
74375;SDS011;62812;55.188;61.302;2023-05-10T05:40:08;17.60;;;7.80;;
74375;SDS011;62812;55.188;61.302;2023-05-10T05:42:38;12.27;;;6.35;;
74375;SDS011;62812;55.188;61.302;2023-05-10T05:45:06;13.93;;;6.75;;
74375;SDS011;62812;55.188;61.302;2023-05-10T05:47:38;16.67;;;6.63;;
74375;SDS011;62812;55.188;61.302;2023-05-10T05:50:07;12.80;;;7.05;;
74375;SDS011;62812;55.188;61.302;2023-05-10T05:52:35;14.10;;;6.85;;
74375;SDS011;62812;55.188;61.302;2023-05-10T05:57:42;13.07;;;6.63;;
74375;SDS011;62812;55.188;61.302;2023-05-10T06:00:11;19.30;;;6.80;;
74375;SDS011;62812;55.188;61.302;2023-05-10T06:02:41;12.05;;;5.90;;
74375;SDS011;62812;55.188;61.302;2023-05-10T06:05:11;12.70;;;6.40;;
74375;SDS011;62812;55.188;61.302;2023-05-10T06:07:46;14.68;;;5.82;;
74375;SDS011;62812;55.188;61.302;2023-05-10T06:10:21;11.43;;;5.65;;
74375;SDS011;62812;55.188;61.302;2023-05-10T06:12:49;10.68;;;5.15;;
74375;SDS011;62812;55.188;61.302;2023-05-10T06:15:21;8.25;;;5.05;;
74375;SDS011;62812;55.188;61.302;2023-05-10T06:17:49;13.00;;;5.47;;
74375;SDS011;62812;55.188;61.302;2023-05-10T06:20:22;12.50;;;5.10;;
74375;SDS011;62812;55.188;61.302;2023-05-10T06:22:50;17.38;;;5.00;;
74375;SDS011;62812;55.188;61.302;2023-05-10T06:25:27;12.05;;;4.97;;
74375;SDS011;62812;55.188;61.302;2023-05-10T06:28:02;12.00;;;4.93;;
74375;SDS011;62812;55.188;61.302;2023-05-10T06:30:28;9.73;;;4.60;;
74375;SDS011;62812;55.188;61.302;2023-05-10T06:32:55;10.43;;;5.05;;
74375;SDS011;62812;55.188;61.302;2023-05-10T06:35:22;13.43;;;5.68;;
74375;SDS011;62812;55.188;61.302;2023-05-10T06:37:51;15.07;;;6.10;;
74375;SDS011;62812;55.188;61.302;2023-05-10T06:40:20;13.95;;;6.32;;
74375;SDS011;62812;55.188;61.302;2023-05-10T06:42:49;15.30;;;5.80;;
74375;SDS011;62812;55.188;61.302;2023-05-10T06:45:17;11.15;;;5.97;;
74375;SDS011;62812;55.188;61.302;2023-05-10T06:47:44;14.27;;;6.18;;
74375;SDS011;62812;55.188;61.302;2023-05-10T06:50:13;14.38;;;6.10;;
74375;SDS011;62812;55.188;61.302;2023-05-10T06:52:40;12.18;;;6.30;;
74375;SDS011;62812;55.188;61.302;2023-05-10T06:55:16;10.65;;;6.00;;
74375;SDS011;62812;55.188;61.302;2023-05-10T06:57:49;13.13;;;6.50;;
74375;SDS011;62812;55.188;61.302;2023-05-10T07:00:19;12.15;;;6.05;;
74375;SDS011;62812;55.188;61.302;2023-05-10T07:02:46;10.98;;;6.13;;
74375;SDS011;62812;55.188;61.302;2023-05-10T07:05:13;11.38;;;6.10;;
74375;SDS011;62812;55.188;61.302;2023-05-10T07:07:41;13.85;;;6.50;;
74375;SDS011;62812;55.188;61.302;2023-05-10T07:10:10;15.55;;;6.18;;
74375;SDS011;62812;55.188;61.302;2023-05-10T07:12:44;17.95;;;7.13;;
74375;SDS011;62812;55.188;61.302;2023-05-10T07:15:15;13.48;;;7.63;;
74375;SDS011;62812;55.188;61.302;2023-05-10T07:17:50;13.32;;;6.80;;
74375;SDS011;62812;55.188;61.302;2023-05-10T07:20:21;17.08;;;7.07;;
74375;SDS011;62812;55.188;61.302;2023-05-10T07:22:56;15.55;;;6.45;;
74375;SDS011;62812;55.188;61.302;2023-05-10T07:25:27;16.40;;;7.05;;
74375;SDS011;62812;55.188;61.302;2023-05-10T07:28:07;19.75;;;7.18;;
74375;SDS011;62812;55.188;61.302;2023-05-10T07:30:37;18.38;;;6.78;;
74375;SDS011;62812;55.188;61.302;2023-05-10T07:33:05;12.32;;;6.80;;
74375;SDS011;62812;55.188;61.302;2023-05-10T07:35:47;18.73;;;7.30;;
74375;SDS011;62812;55.188;61.302;2023-05-10T07:38:18;14.55;;;6.50;;
74375;SDS011;62812;55.188;61.302;2023-05-10T07:40:51;11.40;;;6.25;;
74375;SDS011;62812;55.188;61.302;2023-05-10T07:43:27;12.80;;;6.82;;
74375;SDS011;62812;55.188;61.302;2023-05-10T07:45:58;15.90;;;7.70;;
74375;SDS011;62812;55.188;61.302;2023-05-10T07:48:29;10.23;;;5.50;;
74375;SDS011;62812;55.188;61.302;2023-05-10T07:51:11;14.98;;;6.45;;
74375;SDS011;62812;55.188;61.302;2023-05-10T07:53:39;17.95;;;5.45;;
74375;SDS011;62812;55.188;61.302;2023-05-10T07:56:19;10.82;;;5.03;;
74375;SDS011;62812;55.188;61.302;2023-05-10T07:59:00;10.73;;;5.35;;
74375;SDS011;62812;55.188;61.302;2023-05-10T08:01:30;8.75;;;4.97;;
74375;SDS011;62812;55.188;61.302;2023-05-10T08:04:06;12.43;;;5.78;;
74375;SDS011;62812;55.188;61.302;2023-05-10T08:06:34;11.77;;;5.20;;
74375;SDS011;62812;55.188;61.302;2023-05-10T08:09:02;11.45;;;4.40;;
74375;SDS011;62812;55.188;61.302;2023-05-10T08:11:30;10.95;;;5.00;;
74375;SDS011;62812;55.188;61.302;2023-05-10T08:14:04;10.45;;;4.88;;
74375;SDS011;62812;55.188;61.302;2023-05-10T08:16:32;15.48;;;5.18;;
74375;SDS011;62812;55.188;61.302;2023-05-10T08:18:59;10.48;;;5.45;;
74375;SDS011;62812;55.188;61.302;2023-05-10T08:21:28;8.55;;;4.80;;
74375;SDS011;62812;55.188;61.302;2023-05-10T08:23:57;10.43;;;5.90;;
74375;SDS011;62812;55.188;61.302;2023-05-10T08:26:25;11.77;;;5.65;;
74375;SDS011;62812;55.188;61.302;2023-05-10T08:28:52;11.07;;;5.07;;
74375;SDS011;62812;55.188;61.302;2023-05-10T08:31:22;10.70;;;5.40;;
74375;SDS011;62812;55.188;61.302;2023-05-10T08:36:20;11.25;;;5.28;;
74375;SDS011;62812;55.188;61.302;2023-05-10T08:38:50;11.63;;;5.18;;
74375;SDS011;62812;55.188;61.302;2023-05-10T08:41:18;10.05;;;5.20;;
74375;SDS011;62812;55.188;61.302;2023-05-10T08:43:49;12.50;;;5.55;;
74375;SDS011;62812;55.188;61.302;2023-05-10T08:46:18;11.88;;;5.47;;
74375;SDS011;62812;55.188;61.302;2023-05-10T08:48:53;9.88;;;5.45;;
74375;SDS011;62812;55.188;61.302;2023-05-10T08:51:30;12.55;;;5.35;;
74375;SDS011;62812;55.188;61.302;2023-05-10T08:54:04;11.18;;;5.68;;
74375;SDS011;62812;55.188;61.302;2023-05-10T08:56:36;15.90;;;5.70;;
74375;SDS011;62812;55.188;61.302;2023-05-10T08:59:03;17.00;;;5.63;;
74375;SDS011;62812;55.188;61.302;2023-05-10T09:01:30;16.85;;;6.40;;
74375;SDS011;62812;55.188;61.302;2023-05-10T09:04:00;10.77;;;5.38;;
74375;SDS011;62812;55.188;61.302;2023-05-10T09:06:28;13.73;;;5.35;;
74375;SDS011;62812;55.188;61.302;2023-05-10T09:08:55;11.30;;;5.75;;
74375;SDS011;62812;55.188;61.302;2023-05-10T09:11:24;12.50;;;5.32;;
74375;SDS011;62812;55.188;61.302;2023-05-10T09:13:51;12.60;;;5.90;;
74375;SDS011;62812;55.188;61.302;2023-05-10T09:16:19;13.38;;;5.72;;
74375;SDS011;62812;55.188;61.302;2023-05-10T09:18:46;13.13;;;5.95;;
74375;SDS011;62812;55.188;61.302;2023-05-10T09:21:17;13.55;;;5.38;;
74375;SDS011;62812;55.188;61.302;2023-05-10T09:23:46;9.75;;;5.53;;
74375;SDS011;62812;55.188;61.302;2023-05-10T09:28:59;12.93;;;5.68;;
74375;SDS011;62812;55.188;61.302;2023-05-10T09:31:43;13.07;;;5.72;;
74375;SDS011;62812;55.188;61.302;2023-05-10T09:34:15;14.25;;;6.00;;
74375;SDS011;62812;55.188;61.302;2023-05-10T09:36:55;16.10;;;5.47;;
74375;SDS011;62812;55.188;61.302;2023-05-10T09:39:30;12.70;;;5.80;;
74375;SDS011;62812;55.188;61.302;2023-05-10T09:41:59;13.52;;;6.20;;
74375;SDS011;62812;55.188;61.302;2023-05-10T09:47:32;12.18;;;5.40;;
74375;SDS011;62812;55.188;61.302;2023-05-10T09:50:00;13.23;;;5.50;;
74375;SDS011;62812;55.188;61.302;2023-05-10T09:55:18;10.48;;;5.95;;
74375;SDS011;62812;55.188;61.302;2023-05-10T09:57:49;13.77;;;5.90;;
74375;SDS011;62812;55.188;61.302;2023-05-10T10:03:21;17.38;;;6.28;;
74375;SDS011;62812;55.188;61.302;2023-05-10T10:06:02;19.15;;;5.80;;
74375;SDS011;62812;55.188;61.302;2023-05-10T10:08:32;14.68;;;6.63;;
74375;SDS011;62812;55.188;61.302;2023-05-10T10:10:59;11.63;;;6.03;;
74375;SDS011;62812;55.188;61.302;2023-05-10T10:13:29;25.98;;;6.53;;
74375;SDS011;62812;55.188;61.302;2023-05-10T10:16:00;14.30;;;6.10;;
74375;SDS011;62812;55.188;61.302;2023-05-10T10:18:28;12.25;;;6.10;;
74375;SDS011;62812;55.188;61.302;2023-05-10T10:21:09;11.38;;;5.90;;
74375;SDS011;62812;55.188;61.302;2023-05-10T10:23:47;13.30;;;6.22;;
74375;SDS011;62812;55.188;61.302;2023-05-10T10:26:18;12.85;;;6.38;;
74375;SDS011;62812;55.188;61.302;2023-05-10T10:29:00;13.75;;;6.53;;
74375;SDS011;62812;55.188;61.302;2023-05-10T10:31:38;15.60;;;6.20;;
74375;SDS011;62812;55.188;61.302;2023-05-10T10:34:17;12.02;;;6.18;;
74375;SDS011;62812;55.188;61.302;2023-05-10T10:36:52;13.35;;;6.50;;
74375;SDS011;62812;55.188;61.302;2023-05-10T10:39:21;15.35;;;7.35;;
74375;SDS011;62812;55.188;61.302;2023-05-10T10:41:51;13.32;;;6.88;;
74375;SDS011;62812;55.188;61.302;2023-05-10T10:44:33;14.23;;;7.13;;
74375;SDS011;62812;55.188;61.302;2023-05-10T10:47:06;17.92;;;7.53;;
74375;SDS011;62812;55.188;61.302;2023-05-10T10:49:48;20.67;;;6.72;;
74375;SDS011;62812;55.188;61.302;2023-05-10T10:52:20;16.60;;;6.50;;
74375;SDS011;62812;55.188;61.302;2023-05-10T10:54:58;18.00;;;7.07;;
74375;SDS011;62812;55.188;61.302;2023-05-10T10:57:27;17.92;;;7.25;;
74375;SDS011;62812;55.188;61.302;2023-05-10T11:02:54;13.15;;;6.68;;
74375;SDS011;62812;55.188;61.302;2023-05-10T11:07:52;16.80;;;6.75;;
74375;SDS011;62812;55.188;61.302;2023-05-10T11:10:22;13.27;;;6.88;;
74375;SDS011;62812;55.188;61.302;2023-05-10T11:12:58;14.25;;;6.80;;
74375;SDS011;62812;55.188;61.302;2023-05-10T11:15:30;25.77;;;7.78;;
74375;SDS011;62812;55.188;61.302;2023-05-10T11:17:59;15.25;;;7.30;;
74375;SDS011;62812;55.188;61.302;2023-05-10T11:20:33;15.75;;;7.15;;
74375;SDS011;62812;55.188;61.302;2023-05-10T11:23:13;15.50;;;6.63;;
74375;SDS011;62812;55.188;61.302;2023-05-10T11:25:44;14.05;;;7.30;;
74375;SDS011;62812;55.188;61.302;2023-05-10T11:28:26;13.70;;;7.20;;
74375;SDS011;62812;55.188;61.302;2023-05-10T11:30:55;14.25;;;6.43;;
74375;SDS011;62812;55.188;61.302;2023-05-10T11:33:24;16.42;;;6.35;;
74375;SDS011;62812;55.188;61.302;2023-05-10T11:35:52;32.80;;;21.70;;
74375;SDS011;62812;55.188;61.302;2023-05-10T11:38:22;15.90;;;7.20;;
74375;SDS011;62812;55.188;61.302;2023-05-10T11:40:52;12.45;;;6.22;;
74375;SDS011;62812;55.188;61.302;2023-05-10T11:43:23;16.55;;;7.82;;
74375;SDS011;62812;55.188;61.302;2023-05-10T11:45:56;14.18;;;6.53;;
74375;SDS011;62812;55.188;61.302;2023-05-10T11:48:24;15.30;;;6.40;;
74375;SDS011;62812;55.188;61.302;2023-05-10T11:50:51;12.13;;;6.15;;
74375;SDS011;62812;55.188;61.302;2023-05-10T11:53:20;11.65;;;6.88;;
74375;SDS011;62812;55.188;61.302;2023-05-10T11:55:47;14.50;;;6.75;;
74375;SDS011;62812;55.188;61.302;2023-05-10T11:58:20;11.95;;;6.63;;
74375;SDS011;62812;55.188;61.302;2023-05-10T12:00:51;11.10;;;6.28;;
74375;SDS011;62812;55.188;61.302;2023-05-10T12:03:24;11.38;;;6.45;;
74375;SDS011;62812;55.188;61.302;2023-05-10T12:06:06;14.23;;;6.75;;
74375;SDS011;62812;55.188;61.302;2023-05-10T12:09:11;16.75;;;7.28;;
74375;SDS011;62812;55.188;61.302;2023-05-10T12:11:41;16.88;;;7.40;;
74375;SDS011;62812;55.188;61.302;2023-05-10T12:14:09;13.13;;;6.80;;
74375;SDS011;62812;55.188;61.302;2023-05-10T12:16:39;13.95;;;6.00;;
74375;SDS011;62812;55.188;61.302;2023-05-10T12:22:09;23.40;;;6.93;;
74375;SDS011;62812;55.188;61.302;2023-05-10T12:24:39;15.93;;;6.72;;
74375;SDS011;62812;55.188;61.302;2023-05-10T12:30:32;14.32;;;6.45;;
74375;SDS011;62812;55.188;61.302;2023-05-10T12:33:07;13.55;;;6.15;;
74375;SDS011;62812;55.188;61.302;2023-05-10T12:35:43;15.35;;;6.78;;
74375;SDS011;62812;55.188;61.302;2023-05-10T12:38:27;14.05;;;6.53;;
74375;SDS011;62812;55.188;61.302;2023-05-10T12:40:57;17.30;;;6.70;;
74375;SDS011;62812;55.188;61.302;2023-05-10T12:43:25;12.05;;;6.35;;
74375;SDS011;62812;55.188;61.302;2023-05-10T12:45:54;12.23;;;6.50;;
74375;SDS011;62812;55.188;61.302;2023-05-10T12:48:22;13.95;;;6.80;;
74375;SDS011;62812;55.188;61.302;2023-05-10T12:50:49;18.80;;;7.65;;
74375;SDS011;62812;55.188;61.302;2023-05-10T12:53:16;15.27;;;7.10;;
74375;SDS011;62812;55.188;61.302;2023-05-10T12:55:45;17.67;;;8.50;;
74375;SDS011;62812;55.188;61.302;2023-05-10T12:58:14;17.63;;;6.85;;
74375;SDS011;62812;55.188;61.302;2023-05-10T13:00:42;15.05;;;6.45;;
74375;SDS011;62812;55.188;61.302;2023-05-10T13:03:14;13.05;;;5.95;;
74375;SDS011;62812;55.188;61.302;2023-05-10T13:05:41;12.77;;;6.50;;
74375;SDS011;62812;55.188;61.302;2023-05-10T13:08:10;12.13;;;5.72;;
74375;SDS011;62812;55.188;61.302;2023-05-10T13:10:38;13.73;;;6.40;;
74375;SDS011;62812;55.188;61.302;2023-05-10T13:13:06;13.45;;;6.95;;
74375;SDS011;62812;55.188;61.302;2023-05-10T13:15:34;16.38;;;6.57;;
74375;SDS011;62812;55.188;61.302;2023-05-10T13:18:02;14.70;;;6.32;;
74375;SDS011;62812;55.188;61.302;2023-05-10T13:20:31;12.73;;;6.43;;
74375;SDS011;62812;55.188;61.302;2023-05-10T13:22:58;14.65;;;6.68;;
74375;SDS011;62812;55.188;61.302;2023-05-10T13:25:25;15.40;;;6.47;;
74375;SDS011;62812;55.188;61.302;2023-05-10T13:27:54;14.20;;;7.03;;
74375;SDS011;62812;55.188;61.302;2023-05-10T13:30:21;11.57;;;6.00;;
74375;SDS011;62812;55.188;61.302;2023-05-10T13:32:49;16.17;;;7.13;;
74375;SDS011;62812;55.188;61.302;2023-05-10T13:35:17;13.25;;;6.18;;
74375;SDS011;62812;55.188;61.302;2023-05-10T13:37:50;12.90;;;6.55;;
74375;SDS011;62812;55.188;61.302;2023-05-10T13:40:17;17.92;;;7.07;;
74375;SDS011;62812;55.188;61.302;2023-05-10T13:42:46;18.25;;;6.88;;
74375;SDS011;62812;55.188;61.302;2023-05-10T13:45:13;13.93;;;6.60;;
74375;SDS011;62812;55.188;61.302;2023-05-10T13:47:39;12.88;;;6.35;;
74375;SDS011;62812;55.188;61.302;2023-05-10T13:50:07;16.77;;;6.32;;
74375;SDS011;62812;55.188;61.302;2023-05-10T13:52:39;15.00;;;6.45;;
74375;SDS011;62812;55.188;61.302;2023-05-10T13:55:08;14.18;;;6.53;;
74375;SDS011;62812;55.188;61.302;2023-05-10T13:57:38;14.70;;;6.25;;
74375;SDS011;62812;55.188;61.302;2023-05-10T14:00:05;13.18;;;5.88;;
74375;SDS011;62812;55.188;61.302;2023-05-10T14:02:34;20.25;;;7.38;;
74375;SDS011;62812;55.188;61.302;2023-05-10T14:05:01;14.35;;;6.60;;
74375;SDS011;62812;55.188;61.302;2023-05-10T14:07:29;13.15;;;5.53;;
74375;SDS011;62812;55.188;61.302;2023-05-10T14:09:58;19.08;;;5.80;;
74375;SDS011;62812;55.188;61.302;2023-05-10T14:12:26;15.05;;;5.90;;
74375;SDS011;62812;55.188;61.302;2023-05-10T14:14:53;11.75;;;6.05;;
74375;SDS011;62812;55.188;61.302;2023-05-10T14:17:21;15.52;;;5.65;;
74375;SDS011;62812;55.188;61.302;2023-05-10T14:19:48;15.65;;;5.35;;
74375;SDS011;62812;55.188;61.302;2023-05-10T14:22:20;15.07;;;5.93;;
74375;SDS011;62812;55.188;61.302;2023-05-10T14:24:48;15.27;;;5.90;;
74375;SDS011;62812;55.188;61.302;2023-05-10T14:27:16;25.73;;;7.60;;
74375;SDS011;62812;55.188;61.302;2023-05-10T14:29:46;19.25;;;6.45;;
74375;SDS011;62812;55.188;61.302;2023-05-10T14:32:17;15.70;;;5.95;;
74375;SDS011;62812;55.188;61.302;2023-05-10T14:34:45;22.60;;;6.80;;
74375;SDS011;62812;55.188;61.302;2023-05-10T14:37:16;13.75;;;5.68;;
74375;SDS011;62812;55.188;61.302;2023-05-10T14:39:43;16.63;;;6.10;;
74375;SDS011;62812;55.188;61.302;2023-05-10T14:42:36;16.80;;;5.90;;
74375;SDS011;62812;55.188;61.302;2023-05-10T14:45:07;17.38;;;6.57;;
74375;SDS011;62812;55.188;61.302;2023-05-10T14:50:25;15.95;;;6.45;;
74375;SDS011;62812;55.188;61.302;2023-05-10T14:52:53;14.13;;;5.85;;
74375;SDS011;62812;55.188;61.302;2023-05-10T14:55:21;12.25;;;6.35;;
74375;SDS011;62812;55.188;61.302;2023-05-10T14:57:50;17.23;;;6.13;;
74375;SDS011;62812;55.188;61.302;2023-05-10T15:00:19;14.85;;;6.03;;
74375;SDS011;62812;55.188;61.302;2023-05-10T15:02:47;15.18;;;6.15;;
74375;SDS011;62812;55.188;61.302;2023-05-10T15:05:18;21.38;;;6.10;;
74375;SDS011;62812;55.188;61.302;2023-05-10T15:07:47;19.38;;;6.57;;
74375;SDS011;62812;55.188;61.302;2023-05-10T15:16:03;15.93;;;6.70;;
74375;SDS011;62812;55.188;61.302;2023-05-10T15:18:31;15.35;;;5.95;;
74375;SDS011;62812;55.188;61.302;2023-05-10T15:21:03;18.27;;;6.55;;